Ana Sayfa
METAR-TAF:

METAR-TAF

Havaalanları :

Heathrow Havalimanı

Londra-Heathrow, İngiltere

Enlem: 51-29N, Boylam: 000-27W, yükseklik: 24 m

Güncel hava durumu gözlemi

Rapor saat 16:50 UTC de 25 dakika önce yapıldı.
Rüzgar batıdan 12 kt
Sıcaklık 26°C
Nem 54%
Basınç 1017 hPa
Görüş mesafesi 10 km veya daha fazla

METAR: EGLL 191650Z AUTO 28012KT 9999 NCD 26/16 Q1017 NOSIG

Saat: 18:15 (17:15 UTC)

Tahmin

Rapor saat 14:27 UTC de 2 saat ve 48 dakika önce yapıldı.
Ayın 19'si saat 14 UTC'den ayın 20'si saat 18 UTC'ye kadar geçerli Tahmin
Rüzgar güney/güneybatıdan 12 kt
Görüş mesafesi 10 km veya daha fazla
3500 ft yükseklikte parçalı bulutlu
Dönüşüyor
ayın 19'si saat 14 UTC'den ayın 19'si saat 17 UTC'ye kadar
Rüzgar batıdan 8 kt
Olasılık 30% :
Geçici
ayın 20'si saat 05 UTC'den ayın 20'si saat 09 UTC'ye kadar
800 ft yükseklikte parçalı çok bulutlu

TAF: EGLL 191427Z 1914/2018 21012KT 9999 SCT035 BECMG 1914/1917 27008KT PROB30 TEMPO 2005/2009 BKN008

4.000'den fazla havaalanı için hava durumu gözlemleri ve tahminleri (METAR ve TAF raporları).

Kullanılabilir istasyonlar harita üzerinde sarı ve kırmızı noktalarla gösterilir.

İstasyonun adını görmek için fareyi noktanın üzerinde gezdirin.

Sonrasında hava gözlem ve tahminlerini görmek için tıklayın.

Haritayı değiştirmek için: yaklaştırmak için siyah artı işaretli yeşil düğmeye ve uzaklaştırmak için de eksi işaretli düğmeye hızla tıklayın; bitişik haritalar için yeşil okları kullanın.


METAR-TAF: